Time;durP1;ratioP1;P1;durP2;ratioP2;P2;SDS_P1;SDS_P2;PMS_P1;PMS_P2;Temp;Humidity;BMP_temperature;BMP_pressure;BME280_temperature;BME280_humidity;BME280_pressure;Samples;Min_cycle;Max_cycle;Signal;HPM_P1;HPM_P2
2023/03/04 00:00:42;;;;;;;131.97;37.47;;;;;;;-145.69;100.00;52581.03;5117701;28;20204;-84
2023/03/04 00:03:09;;;;;;;123.17;35.07;;;;;;;-145.69;100.00;52612.72;5117744;28;20197;-84
2023/03/04 00:05:36;;;;;;;117.37;34.30;;;;;;;-145.69;100.00;52618.66;5117538;28;20229;-85
2023/03/04 00:08:03;;;;;;;116.50;35.67;;;;;;;-145.69;100.00;52650.34;5099556;28;20755;-84
2023/03/04 00:10:29;;;;;;;113.80;35.50;;;;;;;-145.69;100.00;52626.59;5099194;28;20204;-84
2023/03/04 00:12:57;;;;;;;127.30;35.90;;;;;;;-145.69;100.00;52588.97;5117798;28;20232;-85
2023/03/04 00:15:24;;;;;;;138.57;37.77;;;;;;;-145.69;100.00;52630.53;5117392;28;20197;-84
2023/03/04 00:17:50;;;;;;;158.27;40.67;;;;;;;-145.69;100.00;52586.97;5117195;28;20221;-84
2023/03/04 00:20:17;;;;;;;158.37;43.10;;;;;;;-145.69;100.00;52571.13;5117271;28;20193;-84
2023/03/04 00:22:44;;;;;;;188.17;44.40;;;;;;;-145.69;100.00;52622.63;5117572;28;20571;-85
2023/03/04 00:25:10;;;;;;;188.70;46.87;;;;;;;-145.69;100.00;52594.91;5117475;28;20209;-84
2023/03/04 00:27:37;;;;;;;161.97;43.47;;;;;;;-145.69;100.00;52602.81;5117323;28;20197;-85
2023/03/04 00:30:06;;;;;;;153.97;39.77;;;;;;;-145.69;100.00;52622.63;5117150;28;20196;-85
2023/03/04 00:32:33;;;;;;;148.03;38.90;;;;;;;-145.69;100.00;52577.06;5117152;28;20281;-85
2023/03/04 00:34:59;;;;;;;150.40;39.90;;;;;;;-145.69;100.00;52579.06;5116994;28;20205;-84
2023/03/04 00:37:26;;;;;;;129.77;37.10;;;;;;;-145.69;100.00;52606.78;5117166;28;20226;-84
2023/03/04 00:39:52;;;;;;;159.77;40.33;;;;;;;-145.69;100.00;52586.97;5116991;28;20204;-85
2023/03/04 00:42:19;;;;;;;148.77;39.80;;;;;;;-145.69;100.00;52642.44;5117012;28;20233;-85
2023/03/04 00:44:45;;;;;;;159.13;41.03;;;;;;;-145.69;100.00;52616.69;5117027;28;20200;-84
2023/03/04 00:47:13;;;;;;;140.93;39.97;;;;;;;-145.69;100.00;52600.84;5116371;28;20213;-84
2023/03/04 00:49:40;;;;;;;161.97;42.07;;;;;;;-145.69;100.00;52622.63;5116753;28;20193;-84
2023/03/04 00:52:07;;;;;;;165.17;42.43;;;;;;;-145.69;100.00;52600.84;5116696;28;20200;-84
2023/03/04 00:54:33;;;;;;;171.83;42.00;;;;;;;-145.69;100.00;52602.81;5116662;28;20197;-84
2023/03/04 00:57:00;;;;;;;165.77;42.43;;;;;;;-145.69;100.00;52622.63;5116651;28;20727;-84
2023/03/04 00:59:26;;;;;;;147.40;42.43;;;;;;;-145.69;100.00;52592.91;5116429;28;20189;-84
2023/03/04 01:01:52;;;;;;;178.37;43.73;;;;;;;-145.69;100.00;52596.88;5114801;28;20201;-84
2023/03/04 01:04:20;;;;;;;171.43;43.97;;;;;;;-145.69;100.00;52598.84;5097785;28;20620;-84
2023/03/04 01:06:47;;;;;;;190.67;48.37;;;;;;;-145.69;100.00;52571.13;5095932;28;20677;-84
2023/03/04 01:09:13;;;;;;;195.77;49.20;;;;;;;-145.69;100.00;52626.59;5099325;28;20208;-84
2023/03/04 01:11:40;;;;;;;183.03;46.97;;;;;;;-145.69;100.00;52626.59;5116296;28;20201;-84
2023/03/04 01:14:06;;;;;;;183.23;47.00;;;;;;;-145.69;100.00;52632.53;5116967;28;20220;-84
2023/03/04 01:16:33;;;;;;;180.73;45.53;;;;;;;-145.69;100.00;52590.94;5116053;28;20202;-83
2023/03/04 01:19:00;;;;;;;184.47;47.70;;;;;;;-145.69;100.00;52626.59;5115580;28;20229;-83
2023/03/04 01:21:28;;;;;;;194.83;46.17;;;;;;;-145.69;100.00;52610.75;5116293;28;20285;-84
2023/03/04 01:23:54;;;;;;;177.23;45.63;;;;;;;-145.69;100.00;52608.75;5116543;28;20197;-84
2023/03/04 01:26:21;;;;;;;193.93;49.13;;;;;;;-145.69;100.00;52630.53;5116060;28;20208;-84
2023/03/04 01:28:47;;;;;;;190.03;47.83;;;;;;;-145.69;100.00;52606.78;5115607;28;20189;-84
2023/03/04 01:31:14;;;;;;;152.83;42.10;;;;;;;-145.69;100.00;52634.50;5115839;28;20250;-84
2023/03/04 01:33:41;;;;;;;144.03;42.27;;;;;;;-145.69;100.00;52600.84;5116002;28;20194;-84
2023/03/04 01:36:07;;;;;;;145.13;39.47;;;;;;;-145.69;100.00;52602.81;5115960;28;20202;-84
2023/03/04 01:38:35;;;;;;;146.80;38.90;;;;;;;-145.69;100.00;52620.66;5115606;28;20226;-83
2023/03/04 01:41:02;;;;;;;135.93;37.87;;;;;;;-145.69;100.00;52586.97;5115691;28;20244;-84
2023/03/04 01:43:30;;;;;;;148.43;38.90;;;;;;;-145.69;100.00;52586.97;5115844;28;20197;-84
2023/03/04 01:45:58;;;;;;;150.17;41.63;;;;;;;-145.69;100.00;52646.41;5115788;28;20197;-84
2023/03/04 01:48:27;;;;;;;163.87;40.97;;;;;;;-145.69;100.00;52622.63;5115824;28;20194;-83
2023/03/04 01:50:54;;;;;;;142.10;38.07;;;;;;;-145.69;100.00;52634.50;5097177;28;20197;-83
2023/03/04 01:53:23;;;;;;;135.97;38.87;;;;;;;-145.69;100.00;52646.41;5115351;28;20201;-83
2023/03/04 01:55:52;;;;;;;176.70;44.33;;;;;;;-145.69;100.00;52614.72;5115276;28;20204;-83
2023/03/04 01:58:18;;;;;;;178.20;43.43;;;;;;;-145.69;100.00;52590.94;5114428;28;20236;-83
2023/03/04 02:00:45;;;;;;;162.20;43.27;;;;;;;-145.69;100.00;52626.59;5114982;28;20228;-83
2023/03/04 02:03:15;;;;;;;194.10;47.17;;;;;;;-145.69;100.00;52618.66;5115473;28;20194;-83
2023/03/04 02:05:44;;;;;;;217.57;51.30;;;;;;;-145.69;100.00;52590.94;5115168;28;20700;-83
2023/03/04 02:08:12;;;;;;;204.83;50.73;;;;;;;-145.69;100.00;52594.91;5115176;28;20205;-83
2023/03/04 02:10:40;;;;;;;217.67;51.90;;;;;;;-145.69;100.00;52608.75;5114917;28;20200;-83
2023/03/04 02:13:08;;;;;;;183.07;45.30;;;;;;;-145.69;100.00;52618.66;5115223;28;20622;-83
2023/03/04 02:15:35;;;;;;;176.73;43.83;;;;;;;-145.69;100.00;52602.81;5114937;28;20204;-83
2023/03/04 02:18:02;;;;;;;185.90;44.10;;;;;;;-145.69;100.00;52624.59;5096318;28;20240;-83
2023/03/04 02:20:40;;;;;;;175.23;43.40;;;;;;;-145.69;100.00;52638.47;5114909;28;20198;-83
2023/03/04 02:23:12;;;;;;;150.97;41.57;;;;;;;-145.69;100.00;52626.59;5114952;28;20199;-83
2023/03/04 02:25:44;;;;;;;180.00;42.47;;;;;;;-145.69;100.00;52600.84;5115001;28;20216;-83
2023/03/04 02:28:12;;;;;;;180.17;44.50;;;;;;;-145.69;100.00;52594.91;5114585;28;20205;-83
2023/03/04 02:30:39;;;;;;;172.27;42.90;;;;;;;-145.69;100.00;52622.63;5114673;28;20674;-83
2023/03/04 02:33:06;;;;;;;169.37;45.30;;;;;;;-145.69;100.00;52618.66;5114603;28;20250;-83
2023/03/04 02:35:32;;;;;;;188.77;46.57;;;;;;;-145.69;100.00;52630.53;5114873;28;20205;-82
2023/03/04 02:37:59;;;;;;;155.40;41.60;;;;;;;-145.69;100.00;52640.44;5114212;28;20225;-82
2023/03/04 02:40:30;;;;;;;167.53;43.00;;;;;;;-145.69;100.00;52606.78;5114524;28;20233;-83
2023/03/04 02:42:59;;;;;;;186.00;44.93;;;;;;;-145.69;100.00;52628.56;5096835;28;20610;-83
2023/03/04 02:45:38;;;;;;;178.83;43.30;;;;;;;-145.69;100.00;52636.50;5114281;28;20189;-83
2023/03/04 02:48:06;;;;;;;202.20;47.50;;;;;;;-145.69;100.00;52620.66;5114288;28;20191;-83
2023/03/04 02:50:36;;;;;;;190.17;47.30;;;;;;;-145.69;100.00;52598.84;5114415;28;20197;-82
2023/03/04 02:53:03;;;;;;;183.63;45.33;;;;;;;-145.69;100.00;52604.81;5114609;28;20212;-83
2023/03/04 02:55:31;;;;;;;166.80;44.13;;;;;;;-145.69;100.00;52630.53;5096391;28;20204;-82
2023/03/04 02:57:57;;;;;;;198.10;47.27;;;;;;;-145.69;100.00;52618.66;5114137;28;20221;-83
2023/03/04 03:00:27;;;;;;;205.43;50.13;;;;;;;-145.69;100.00;52624.59;5114137;28;20264;-83
2023/03/04 03:02:56;;;;;;;230.97;52.37;;;;;;;-145.69;100.00;52598.84;5114210;28;20288;-83
2023/03/04 03:05:25;;;;;;;199.13;46.47;;;;;;;-145.69;100.00;52638.47;5114317;28;20202;-83
2023/03/04 03:07:52;;;;;;;164.13;42.03;;;;;;;-145.69;100.00;52636.50;5097394;28;20263;-83
2023/03/04 03:10:19;;;;;;;195.10;47.40;;;;;;;-145.69;100.00;52630.53;5097104;28;20284;-83
2023/03/04 03:12:46;;;;;;;205.33;48.00;;;;;;;-145.69;100.00;52586.97;5114157;28;20197;-83
2023/03/04 03:15:13;;;;;;;174.13;42.80;;;;;;;-145.69;100.00;52594.91;5113197;28;20717;-83
2023/03/04 03:17:40;;;;;;;217.57;48.80;;;;;;;-145.69;100.00;52624.59;5113817;28;20247;-83
2023/03/04 03:20:11;;;;;;;213.70;50.23;;;;;;;-145.69;100.00;52620.66;5113963;28;20545;-83
2023/03/04 03:22:37;;;;;;;190.83;46.77;;;;;;;-145.69;100.00;52614.72;5114101;28;20228;-83
2023/03/04 03:25:05;;;;;;;191.77;48.70;;;;;;;-145.69;100.00;52634.50;5113667;28;20232;-83
2023/03/04 03:27:32;;;;;;;203.93;49.80;;;;;;;-145.69;100.00;52622.63;5113726;28;20201;-83
2023/03/04 03:29:58;;;;;;;235.27;50.10;;;;;;;-145.69;100.00;52620.66;5113496;28;20205;-82
2023/03/04 03:32:25;;;;;;;227.73;52.00;;;;;;;-145.69;100.00;52610.75;5114018;28;20193;-82
2023/03/04 03:34:51;;;;;;;225.43;50.87;;;;;;;-145.69;100.00;52612.72;5113627;28;20201;-83
2023/03/04 03:37:19;;;;;;;224.67;50.97;;;;;;;-145.69;100.00;52604.81;5113926;28;20201;-82
2023/03/04 03:39:46;;;;;;;187.60;45.80;;;;;;;-145.69;100.00;52622.63;5113668;28;20236;-82
2023/03/04 03:42:12;;;;;;;205.57;48.67;;;;;;;-145.69;100.00;52626.59;5113571;28;20733;-83
2023/03/04 03:44:39;;;;;;;204.47;50.07;;;;;;;-145.69;100.00;52575.09;5113366;28;20197;-82
2023/03/04 03:47:06;;;;;;;207.33;47.20;;;;;;;-145.69;100.00;52598.84;5113629;28;20657;-83
2023/03/04 03:49:32;;;;;;;195.90;47.53;;;;;;;-145.69;100.00;52594.91;5113535;28;20208;-83
2023/03/04 03:51:59;;;;;;;206.40;48.77;;;;;;;-145.69;100.00;52620.66;5113605;28;20201;-84
2023/03/04 03:54:27;;;;;;;203.10;47.63;;;;;;;-145.69;100.00;52624.59;5113348;28;20194;-83
2023/03/04 03:56:54;;;;;;;210.27;48.73;;;;;;;-145.69;100.00;52596.88;5113484;28;20208;-83
2023/03/04 03:59:20;;;;;;;216.73;51.27;;;;;;;-145.69;100.00;52614.72;5113450;28;20228;-81
2023/03/04 04:01:47;;;;;;;237.90;51.63;;;;;;;-145.69;100.00;52608.75;5113915;28;20205;-83
2023/03/04 04:04:13;;;;;;;226.03;52.03;;;;;;;-145.69;100.00;52618.66;5113420;28;20205;-83
2023/03/04 04:06:40;;;;;;;267.23;77.37;;;;;;;-145.69;100.00;52618.66;5111887;28;20431;-83
2023/03/04 04:09:06;;;;;;;214.87;57.17;;;;;;;-145.69;100.00;52606.78;5112834;28;20201;-82
2023/03/04 04:11:34;;;;;;;221.10;54.50;;;;;;;-145.69;100.00;52658.28;5113448;28;20209;-83
2023/03/04 04:14:01;;;;;;;211.43;50.73;;;;;;;-145.69;100.00;52632.53;5113508;28;20193;-82
2023/03/04 04:16:27;;;;;;;244.37;56.83;;;;;;;-145.69;100.00;52608.75;5113482;28;20236;-82
2023/03/04 04:18:55;;;;;;;236.63;54.33;;;;;;;-145.69;100.00;52614.72;5113320;28;20225;-83
2023/03/04 04:21:22;;;;;;;200.40;47.57;;;;;;;-145.69;100.00;52610.75;5113422;28;20194;-82
2023/03/04 04:23:50;;;;;;;188.90;46.20;;;;;;;-145.69;100.00;52642.44;5098927;28;20266;-82
2023/03/04 04:26:19;;;;;;;225.53;53.60;;;;;;;-145.69;100.00;52622.63;5117384;28;20208;-82
2023/03/04 04:28:47;;;;;;;217.10;52.37;;;;;;;-145.69;100.00;52638.47;5116988;28;20401;-82
2023/03/04 04:31:13;;;;;;;208.07;52.57;;;;;;;-145.69;100.00;52606.78;5116950;28;20205;-82
2023/03/04 04:33:40;;;;;;;218.63;53.50;;;;;;;-145.69;100.00;52590.94;5116907;27;20212;-82
2023/03/04 04:36:08;;;;;;;211.57;48.50;;;;;;;-145.69;100.00;52662.22;5116984;28;20204;-82
2023/03/04 04:38:34;;;;;;;206.50;46.00;;;;;;;-145.69;100.00;52610.75;5116140;28;20223;-83
2023/03/04 04:41:01;;;;;;;188.97;44.93;;;;;;;-145.69;100.00;52646.41;5116841;28;20655;-82
2023/03/04 04:43:27;;;;;;;172.43;44.03;;;;;;;-145.69;100.00;52606.78;5116631;28;20197;-82
2023/03/04 04:45:55;;;;;;;183.77;45.40;;;;;;;-145.69;100.00;52624.59;5116268;28;20542;-82
2023/03/04 04:48:22;;;;;;;165.80;43.40;;;;;;;-145.69;100.00;52628.56;5115993;28;20232;-82
2023/03/04 04:50:54;;;;;;;197.23;48.53;;;;;;;-145.69;100.00;52630.53;5116581;28;20200;-83
2023/03/04 04:53:21;;;;;;;221.30;52.13;;;;;;;-145.69;100.00;52646.41;5116418;28;20209;-82
2023/03/04 04:55:47;;;;;;;217.03;50.47;;;;;;;-145.69;100.00;52612.72;5116552;28;20201;-82
2023/03/04 04:58:14;;;;;;;229.47;51.00;;;;;;;-145.69;100.00;52618.66;5116231;28;20197;-82
2023/03/04 05:00:40;;;;;;;197.03;48.80;;;;;;;-145.69;100.00;52622.63;5116549;28;20193;-83
2023/03/04 05:03:08;;;;;;;211.53;50.23;;;;;;;-145.69;100.00;52622.63;5116381;28;20197;-83
2023/03/04 05:05:39;;;;;;;220.70;53.03;;;;;;;-145.69;100.00;52614.72;5116376;28;20197;-83
2023/03/04 05:08:08;;;;;;;228.57;52.63;;;;;;;-145.69;100.00;52650.34;5116035;28;20651;-82
2023/03/04 05:10:34;;;;;;;243.17;51.37;;;;;;;-145.69;100.00;52594.91;5115079;28;20200;-83
2023/03/04 05:13:01;;;;;;;196.80;49.07;;;;;;;-145.69;100.00;52616.69;5113386;28;20208;-83
2023/03/04 05:15:28;;;;;;;226.83;51.27;;;;;;;-145.69;100.00;52618.66;5115973;28;20193;-83
2023/03/04 05:17:54;;;;;;;225.47;52.40;;;;;;;-145.69;100.00;52612.72;5115830;28;20197;-83
2023/03/04 05:20:26;;;;;;;195.50;50.47;;;;;;;-145.69;100.00;52612.72;5115305;28;20316;-83
2023/03/04 05:22:52;;;;;;;272.63;59.07;;;;;;;-145.69;100.00;52634.50;5115779;28;20280;-83
2023/03/04 05:25:19;;;;;;;251.03;57.57;;;;;;;-145.69;100.00;52632.53;5116445;28;20682;-83
2023/03/04 05:27:45;;;;;;;282.30;60.30;;;;;;;-145.69;100.00;52586.97;5115863;28;20201;-83
2023/03/04 05:30:12;;;;;;;284.73;61.13;;;;;;;-145.69;100.00;52624.59;5116075;28;20322;-83
2023/03/04 05:32:39;;;;;;;245.93;56.03;;;;;;;-145.69;100.00;52606.78;5115644;28;20197;-83
2023/03/04 05:35:06;;;;;;;240.37;54.03;;;;;;;-145.69;100.00;52610.75;5114676;28;20202;-83
2023/03/04 05:37:34;;;;;;;237.00;55.83;;;;;;;-145.69;100.00;52638.47;5115188;28;20189;-83
2023/03/04 05:40:01;;;;;;;245.03;54.83;;;;;;;-145.69;100.00;52612.72;5115300;28;20225;-83
2023/03/04 05:42:27;;;;;;;266.47;58.03;;;;;;;-145.69;100.00;52596.88;5114850;28;20687;-83
2023/03/04 05:44:54;;;;;;;287.20;59.67;;;;;;;-145.69;100.00;52630.53;5115602;28;20208;-82
2023/03/04 05:47:20;;;;;;;246.87;57.40;;;;;;;-145.69;100.00;52590.94;5116159;28;20202;-82
2023/03/04 05:49:47;;;;;;;270.93;61.63;;;;;;;-145.69;100.00;52614.72;5116293;28;20208;-83
2023/03/04 05:52:13;;;;;;;288.40;62.87;;;;;;;-145.69;100.00;52630.53;5116449;28;20197;-83
2023/03/04 05:54:41;;;;;;;276.07;61.23;;;;;;;-145.69;100.00;52630.53;5117740;28;20227;-83
2023/03/04 05:57:08;;;;;;;252.77;58.73;;;;;;;-145.69;100.00;52600.84;5116291;28;20212;-83
2023/03/04 05:59:34;;;;;;;250.87;59.60;;;;;;;-145.69;100.00;52638.47;5115200;28;20225;-83
2023/03/04 06:02:03;;;;;;;255.60;57.97;;;;;;;-145.69;100.00;52598.84;5115399;28;20209;-84
2023/03/04 06:04:29;;;;;;;235.73;54.90;;;;;;;-145.69;100.00;52638.47;5115609;28;20204;-83
2023/03/04 06:06:56;;;;;;;271.83;57.50;;;;;;;-145.69;100.00;52614.72;5115495;28;20201;-83
2023/03/04 06:09:22;;;;;;;258.57;57.90;;;;;;;-145.69;100.00;52622.63;5114823;28;20670;-83
2023/03/04 06:11:50;;;;;;;244.50;54.50;;;;;;;-145.69;100.00;52646.41;5115129;28;20204;-83
2023/03/04 06:14:17;;;;;;;225.70;52.73;;;;;;;-145.69;100.00;52612.72;5114709;28;20571;-83
2023/03/04 06:16:43;;;;;;;242.43;54.90;;;;;;;-145.69;100.00;52628.56;5116846;28;20208;-82
2023/03/04 06:19:10;;;;;;;217.77;54.37;;;;;;;-145.69;100.00;52606.78;5115509;28;20220;-83
2023/03/04 06:21:37;;;;;;;238.27;55.57;;;;;;;-145.69;100.00;52630.53;5117270;28;20644;-82
2023/03/04 06:24:05;;;;;;;271.57;58.90;;;;;;;-145.69;100.00;52630.53;5115997;28;20242;-82
2023/03/04 06:26:31;;;;;;;237.73;55.50;;;;;;;-145.69;100.00;52634.50;5115998;28;20197;-83
2023/03/04 06:29:01;;;;;;;231.07;52.87;;;;;;;-145.69;100.00;52614.72;5114887;28;20275;-83
2023/03/04 06:31:27;;;;;;;205.43;51.07;;;;;;;-145.69;100.00;52630.53;5115531;28;20200;-82
2023/03/04 06:33:54;;;;;;;238.73;53.73;;;;;;;-145.69;100.00;52600.84;5114998;28;20288;-82
2023/03/04 06:36:21;;;;;;;210.13;53.43;;;;;;;-145.69;100.00;52626.59;5114650;28;20208;-82
2023/03/04 06:38:49;;;;;;;232.63;55.63;;;;;;;-145.69;100.00;52630.53;5114839;28;20201;-83
2023/03/04 06:41:16;;;;;;;263.47;57.67;;;;;;;-145.69;100.00;52636.50;5110759;28;20557;-83
2023/03/04 06:43:43;;;;;;;256.30;57.07;;;;;;;-145.69;100.00;52642.44;5115949;28;20205;-82
2023/03/04 06:46:11;;;;;;;229.03;54.50;;;;;;;-145.69;100.00;52636.50;5115142;28;20204;-83
2023/03/04 06:48:40;;;;;;;221.53;54.43;;;;;;;-145.69;100.00;52624.59;5115117;28;20200;-83
2023/03/04 06:51:07;;;;;;;208.40;49.47;;;;;;;-145.69;100.00;52628.56;5114947;28;20212;-83
2023/03/04 06:53:33;;;;;;;226.10;51.37;;;;;;;-145.69;100.00;52650.34;5115065;28;20198;-83
2023/03/04 06:56:00;;;;;;;181.83;47.47;;;;;;;-145.69;100.00;52622.63;5115059;28;20640;-83
2023/03/04 06:58:27;;;;;;;204.70;49.67;;;;;;;-145.69;100.00;52638.47;5114681;28;20191;-82
2023/03/04 07:00:53;;;;;;;207.60;50.63;;;;;;;-145.69;100.00;52626.59;5097226;28;20229;-83
2023/03/04 07:03:22;;;;;;;237.37;54.33;;;;;;;-145.69;100.00;52602.81;5114604;28;20532;-83
2023/03/04 07:05:49;;;;;;;222.03;52.17;;;;;;;-145.69;100.00;52642.44;5114339;28;20648;-83
2023/03/04 07:08:15;;;;;;;218.10;49.67;;;;;;;-145.69;100.00;52654.31;5110984;28;20657;-83
2023/03/04 07:10:42;;;;;;;194.00;49.53;;;;;;;-145.69;100.00;52594.91;5114474;28;20194;-83
2023/03/04 07:13:09;;;;;;;197.87;49.60;;;;;;;-145.69;100.00;52592.91;5115689;28;20556;-82
2023/03/04 07:15:35;;;;;;;205.57;49.30;;;;;;;-145.69;100.00;52630.53;5114202;28;20229;-83
2023/03/04 07:18:02;;;;;;;209.93;50.37;;;;;;;-145.69;100.00;52646.41;5113406;28;20193;-83
2023/03/04 07:20:32;;;;;;;212.47;52.80;;;;;;;-145.69;100.00;52592.91;5114369;28;20231;-83
2023/03/04 07:22:59;;;;;;;207.07;50.87;;;;;;;-145.69;100.00;52626.59;5114653;28;20201;-80
2023/03/04 07:25:26;;;;;;;184.60;49.37;;;;;;;-145.69;100.00;52634.50;5114099;28;20194;-82
2023/03/04 07:27:53;;;;;;;199.23;52.33;;;;;;;-145.69;100.00;52610.75;5114329;28;20205;-83
2023/03/04 07:30:19;;;;;;;203.13;52.43;;;;;;;-145.69;100.00;52608.75;5114076;28;20229;-83
2023/03/04 07:32:46;;;;;;;189.73;48.60;;;;;;;-145.69;100.00;52620.66;5113891;28;20280;-83
2023/03/04 07:35:12;;;;;;;205.23;50.33;;;;;;;-145.69;100.00;52590.94;5114145;28;20197;-83
2023/03/04 07:37:40;;;;;;;213.17;53.60;;;;;;;-145.69;100.00;52588.97;5114034;28;20201;-83
2023/03/04 07:40:08;;;;;;;229.90;52.90;;;;;;;-145.69;100.00;52622.63;5113302;28;20630;-82
2023/03/04 07:42:36;;;;;;;235.77;56.30;;;;;;;-145.69;100.00;52634.50;5113547;28;20205;-83
2023/03/04 07:45:02;;;;;;;243.97;59.50;;;;;;;-145.69;100.00;52614.72;5114747;28;20216;-83
2023/03/04 07:47:32;;;;;;;242.30;61.63;;;;;;;-145.69;100.00;52598.84;5113492;28;20194;-83
2023/03/04 07:49:58;;;;;;;224.97;58.10;;;;;;;-145.69;100.00;52638.47;5114017;28;20201;-83
2023/03/04 07:52:25;;;;;;;229.70;58.90;;;;;;;-145.69;100.00;52602.81;5113390;28;20193;-83
2023/03/04 07:54:53;;;;;;;225.67;57.87;;;;;;;-145.69;100.00;52616.69;5114226;28;20205;-83
2023/03/04 07:57:19;;;;;;;222.43;73.50;;;;;;;-145.69;100.00;52630.53;5114322;28;20427;-82
2023/03/04 07:59:46;;;;;;;179.87;53.80;;;;;;;-145.69;100.00;52612.72;5117473;28;20485;-83
2023/03/04 08:02:14;;;;;;;171.43;52.73;;;;;;;-145.69;100.00;52600.84;5117643;28;20197;-83
2023/03/04 08:04:43;;;;;;;171.83;52.30;;;;;;;-145.69;100.00;52608.75;5117363;28;20185;-82
2023/03/04 08:07:10;;;;;;;171.37;52.10;;;;;;;-145.69;100.00;52567.16;5118214;28;20204;-83
2023/03/04 08:09:36;;;;;;;167.57;50.10;;;;;;;-145.69;100.00;52602.81;5117123;28;20196;-83
2023/03/04 08:12:04;;;;;;;155.97;46.70;;;;;;;-145.69;100.00;52606.78;5117437;28;20201;-83
2023/03/04 08:14:32;;;;;;;143.93;42.70;;;;;;;-145.69;100.00;52618.66;5117266;28;20560;-82
2023/03/04 08:16:59;;;;;;;129.37;41.60;;;;;;;-145.69;100.00;52616.69;5117304;28;20209;-82
2023/03/04 08:19:27;;;;;;;126.90;40.77;;;;;;;-145.69;100.00;52610.75;5117280;28;20212;-83
2023/03/04 08:21:54;;;;;;;129.73;42.93;;;;;;;-145.69;100.00;52616.69;5117511;28;20202;-82
2023/03/04 08:24:23;;;;;;;120.57;39.83;;;;;;;-145.69;100.00;52610.75;5116927;28;20242;-83
2023/03/04 08:26:50;;;;;;;115.97;40.37;;;;;;;-145.69;100.00;52626.59;5117363;28;20647;-82
2023/03/04 08:29:20;;;;;;;141.43;43.10;;;;;;;-145.69;100.00;52612.72;5117547;28;20201;-82
2023/03/04 08:31:47;;;;;;;132.83;42.80;;;;;;;-145.69;100.00;52626.59;5117745;28;20194;-82
2023/03/04 08:34:17;;;;;;;130.60;43.53;;;;;;;-145.69;100.00;52608.75;5116911;28;20193;-82
2023/03/04 08:36:43;;;;;;;136.30;44.97;;;;;;;-145.69;100.00;52638.47;5116923;28;20197;-83
2023/03/04 08:39:13;;;;;;;122.83;42.13;;;;;;;-145.69;100.00;52606.78;5116298;28;20201;-84
2023/03/04 08:41:39;;;;;;;136.50;42.73;;;;;;;-145.69;100.00;52626.59;5095972;28;20704;-83
2023/03/04 08:44:09;;;;;;;126.03;44.33;;;;;;;-145.69;100.00;52586.97;5098339;28;20220;-82
2023/03/04 08:46:38;;;;;;;140.03;43.73;;;;;;;-145.69;100.00;52616.69;5115560;28;20544;-82
2023/03/04 08:49:05;;;;;;;139.97;46.40;;;;;;;-145.69;100.00;52614.72;5116035;28;20189;-82
2023/03/04 08:51:31;;;;;;;128.37;43.17;;;;;;;-145.69;100.00;52614.72;5116195;28;20679;-82
2023/03/04 08:53:58;;;;;;;128.17;43.33;;;;;;;-145.69;100.00;52618.66;5116627;28;20209;-82
2023/03/04 08:56:24;;;;;;;131.37;40.73;;;;;;;-145.69;100.00;52590.94;5116097;28;20201;-83
2023/03/04 08:58:51;;;;;;;109.00;38.97;;;;;;;-145.69;100.00;52586.97;5115966;28;20201;-83
2023/03/04 09:01:17;;;;;;;109.30;37.57;;;;;;;-145.69;100.00;52600.84;5116053;28;20225;-83
2023/03/04 09:03:45;;;;;;;112.03;37.53;;;;;;;-145.69;100.00;52636.50;5116209;28;20209;-83
2023/03/04 09:06:14;;;;;;;113.87;38.27;;;;;;;-145.69;100.00;52586.97;5115428;28;20765;-83
2023/03/04 09:08:41;;;;;;;111.90;37.87;;;;;;;-145.69;100.00;52598.84;5115598;28;20224;-83
2023/03/04 09:11:07;;;;;;;105.17;37.40;;;;;;;-145.69;100.00;52602.81;5115470;28;20192;-83
2023/03/04 09:13:34;;;;;;;116.63;39.40;;;;;;;-145.69;100.00;52569.16;5101689;28;20205;-83
2023/03/04 09:16:01;;;;;;;102.00;38.17;;;;;;;-145.69;100.00;52590.94;5106964;28;20201;-83
2023/03/04 09:18:28;;;;;;;113.73;37.27;;;;;;;-145.69;100.00;52608.75;5115563;28;20685;-83
2023/03/04 09:20:56;;;;;;;113.23;38.70;;;;;;;-145.69;100.00;52575.09;5097228;28;20748;-83
2023/03/04 09:23:22;;;;;;;106.20;38.83;;;;;;;-145.69;100.00;52596.88;5128296;27;20197;-83
2023/03/04 09:25:49;;;;;;;102.30;37.70;;;;;;;-145.69;100.00;52608.75;5126140;27;20190;-83
2023/03/04 09:28:16;;;;;;;106.03;36.37;;;;;;;-145.69;100.00;52585.00;5116115;28;20215;-79
2023/03/04 09:30:43;;;;;;;90.27;33.80;;;;;;;-145.69;100.00;52618.66;5115787;28;20203;-79
2023/03/04 09:33:10;;;;;;;89.43;33.60;;;;;;;-145.69;100.00;52590.94;5119081;27;20194;-80
2023/03/04 09:35:37;;;;;;;91.37;32.67;;;;;;;-145.69;100.00;52586.97;5117300;28;20189;-78
2023/03/04 09:38:05;;;;;;;88.73;31.70;;;;;;;-145.69;100.00;52563.22;5115238;28;20198;-83
2023/03/04 09:40:37;;;;;;;88.83;31.67;;;;;;;-145.69;100.00;52600.84;5118436;28;20239;-83
2023/03/04 09:43:06;;;;;;;75.43;29.63;;;;;;;-145.69;100.00;52606.78;5119227;28;20219;-82
2023/03/04 09:45:38;;;;;;;83.17;30.50;;;;;;;-145.69;100.00;52622.63;5115361;28;20299;-84
2023/03/04 09:48:06;;;;;;;79.80;30.23;;;;;;;-145.69;100.00;52590.94;5119201;27;20219;-82
2023/03/04 09:50:34;;;;;;;76.33;26.80;;;;;;;-145.69;100.00;52618.66;5118170;28;20204;-83
2023/03/04 09:53:19;;;;;;;70.20;25.33;;;;;;;-145.69;100.00;52575.09;5115619;27;20268;-83
2023/03/04 09:55:50;;;;;;;61.83;24.57;;;;;;;-145.69;100.00;52575.09;5115413;28;20204;-85
2023/03/04 09:58:28;;;;;;;67.13;26.97;;;;;;;-145.69;100.00;52571.13;5115739;28;20765;-85
2023/03/04 10:00:58;;;;;;;73.63;26.67;;;;;;;-145.69;100.00;52602.81;5115553;28;20225;-83
2023/03/04 10:03:28;;;;;;;74.40;27.13;;;;;;;-145.69;100.00;52586.97;5115050;27;20651;-80
2023/03/04 10:05:57;;;;;;;66.07;26.17;;;;;;;-145.69;100.00;52579.06;5114960;28;20544;-81
2023/03/04 10:08:38;;;;;;;60.53;25.73;;;;;;;-145.69;100.00;52586.97;5115128;28;20201;-83
2023/03/04 10:11:11;;;;;;;70.57;27.27;;;;;;;-145.69;100.00;52586.97;5115508;28;20197;-84
2023/03/04 10:13:43;;;;;;;73.57;28.93;;;;;;;-145.69;100.00;52586.97;5116260;28;20205;-83
2023/03/04 10:16:15;;;;;;;73.03;26.73;;;;;;;-145.69;100.00;52604.81;5115604;28;20201;-83
2023/03/04 10:18:47;;;;;;;79.80;33.53;;;;;;;-145.69;100.00;52592.91;5113944;27;20443;-83
2023/03/04 10:21:20;;;;;;;65.23;25.07;;;;;;;-145.69;100.00;52557.28;5116656;28;20220;-84
2023/03/04 10:23:49;;;;;;;60.77;24.77;;;;;;;-145.69;100.00;52583.00;5115585;28;20232;-84
2023/03/04 10:26:19;;;;;;;63.27;24.47;;;;;;;-145.69;100.00;52614.72;5117637;28;20663;-83
2023/03/04 10:29:45;;;;;;;65.90;23.63;;;;;;;-145.69;100.00;52586.97;5133058;28;20206;-83
2023/03/04 10:32:23;;;;;;;66.13;24.30;;;;;;;-145.69;100.00;52559.25;5133594;28;20201;-83
2023/03/04 10:34:53;;;;;;;66.37;24.40;;;;;;;-145.69;100.00;52579.06;5102147;28;20212;-80
2023/03/04 10:37:19;;;;;;;63.00;23.87;;;;;;;-145.69;100.00;52590.94;5129297;28;20189;-82
2023/03/04 10:39:49;;;;;;;68.17;25.20;;;;;;;-145.69;100.00;52598.84;5119213;28;20529;-83
2023/03/04 10:42:26;;;;;;;66.40;25.83;;;;;;;-145.69;100.00;52571.13;5114299;28;20699;-84
2023/03/04 10:44:58;;;;;;;69.53;25.57;;;;;;;-145.69;100.00;52563.22;5099229;28;20194;-84
2023/03/04 10:47:26;;;;;;;65.17;25.97;;;;;;;-145.69;100.00;52571.13;5116413;28;20572;-82
2023/03/04 10:49:55;;;;;;;68.40;26.17;;;;;;;-145.69;100.00;52535.47;5113140;28;20284;-84